sensor_id;sensor_type;location;lat;lon;timestamp;temperature;humidity
46037;DHT22;31769;49.304;8.428;2023-04-08T00:02:40;9.50;99.90
46037;DHT22;31769;49.304;8.428;2023-04-08T00:05:41;9.50;99.90
46037;DHT22;31769;49.304;8.428;2023-04-08T00:08:41;9.50;99.90
46037;DHT22;31769;49.304;8.428;2023-04-08T00:11:42;9.50;99.90
46037;DHT22;31769;49.304;8.428;2023-04-08T00:14:43;9.40;99.90
46037;DHT22;31769;49.304;8.428;2023-04-08T00:17:43;9.40;99.90
46037;DHT22;31769;49.304;8.428;2023-04-08T00:20:44;9.40;99.90
46037;DHT22;31769;49.304;8.428;2023-04-08T00:23:46;9.50;99.90
46037;DHT22;31769;49.304;8.428;2023-04-08T00:26:46;9.40;99.90
46037;DHT22;31769;49.304;8.428;2023-04-08T00:29:47;9.50;99.90
46037;DHT22;31769;49.304;8.428;2023-04-08T00:32:48;9.50;99.90
46037;DHT22;31769;49.304;8.428;2023-04-08T00:35:48;9.50;99.90
46037;DHT22;31769;49.304;8.428;2023-04-08T00:38:49;9.50;99.90
46037;DHT22;31769;49.304;8.428;2023-04-08T00:41:49;9.50;99.90
46037;DHT22;31769;49.304;8.428;2023-04-08T00:44:50;9.50;99.90
46037;DHT22;31769;49.304;8.428;2023-04-08T00:47:51;9.50;99.90
46037;DHT22;31769;49.304;8.428;2023-04-08T00:50:52;9.50;99.90
46037;DHT22;31769;49.304;8.428;2023-04-08T00:53:54;9.40;99.90
46037;DHT22;31769;49.304;8.428;2023-04-08T00:56:54;9.40;99.90
46037;DHT22;31769;49.304;8.428;2023-04-08T00:59:56;9.40;99.90
46037;DHT22;31769;49.304;8.428;2023-04-08T01:06:34;9.40;99.90
46037;DHT22;31769;49.304;8.428;2023-04-08T01:09:38;9.40;99.90
46037;DHT22;31769;49.304;8.428;2023-04-08T01:12:42;9.30;99.90
46037;DHT22;31769;49.304;8.428;2023-04-08T01:15:45;9.40;99.90
46037;DHT22;31769;49.304;8.428;2023-04-08T01:18:46;9.40;99.90
46037;DHT22;31769;49.304;8.428;2023-04-08T01:21:49;9.40;99.90
46037;DHT22;31769;49.304;8.428;2023-04-08T01:24:56;9.40;99.90
46037;DHT22;31769;49.304;8.428;2023-04-08T01:28:00;9.40;99.90
46037;DHT22;31769;49.304;8.428;2023-04-08T01:31:03;9.40;99.90
46037;DHT22;31769;49.304;8.428;2023-04-08T01:34:04;9.40;99.90
46037;DHT22;31769;49.304;8.428;2023-04-08T01:37:06;9.40;99.90
46037;DHT22;31769;49.304;8.428;2023-04-08T01:40:08;9.40;99.90
46037;DHT22;31769;49.304;8.428;2023-04-08T01:43:13;9.40;99.90
46037;DHT22;31769;49.304;8.428;2023-04-08T01:46:15;9.40;99.90
46037;DHT22;31769;49.304;8.428;2023-04-08T01:49:16;9.40;99.90
46037;DHT22;31769;49.304;8.428;2023-04-08T01:52:18;9.40;99.90
46037;DHT22;31769;49.304;8.428;2023-04-08T01:55:20;9.40;99.90
46037;DHT22;31769;49.304;8.428;2023-04-08T01:58:21;9.40;99.90
46037;DHT22;31769;49.304;8.428;2023-04-08T02:01:24;9.40;99.90
46037;DHT22;31769;49.304;8.428;2023-04-08T02:04:26;10.10;99.90
46037;DHT22;31769;49.304;8.428;2023-04-08T02:07:27;10.20;99.90
46037;DHT22;31769;49.304;8.428;2023-04-08T02:10:28;9.20;99.90
46037;DHT22;31769;49.304;8.428;2023-04-08T02:13:30;8.90;99.90
46037;DHT22;31769;49.304;8.428;2023-04-08T02:16:46;9.40;99.90
46037;DHT22;31769;49.304;8.428;2023-04-08T02:19:55;9.30;99.90
46037;DHT22;31769;49.304;8.428;2023-04-08T02:23:24;9.30;99.90
46037;DHT22;31769;49.304;8.428;2023-04-08T02:26:23;9.30;99.90
46037;DHT22;31769;49.304;8.428;2023-04-08T02:29:25;9.20;99.90
46037;DHT22;31769;49.304;8.428;2023-04-08T02:32:28;9.20;99.90
46037;DHT22;31769;49.304;8.428;2023-04-08T02:35:30;9.10;99.90
46037;DHT22;31769;49.304;8.428;2023-04-08T02:38:32;9.10;99.90
46037;DHT22;31769;49.304;8.428;2023-04-08T02:41:32;9.10;99.90
46037;DHT22;31769;49.304;8.428;2023-04-08T02:44:33;9.10;99.90
46037;DHT22;31769;49.304;8.428;2023-04-08T02:47:36;9.10;99.90
46037;DHT22;31769;49.304;8.428;2023-04-08T02:50:37;9.10;99.90
46037;DHT22;31769;49.304;8.428;2023-04-08T02:53:39;9.00;99.90
46037;DHT22;31769;49.304;8.428;2023-04-08T02:56:39;9.00;99.90
46037;DHT22;31769;49.304;8.428;2023-04-08T02:59:40;8.90;99.90
46037;DHT22;31769;49.304;8.428;2023-04-08T03:02:41;8.90;99.90
46037;DHT22;31769;49.304;8.428;2023-04-08T03:05:42;8.90;99.90
46037;DHT22;31769;49.304;8.428;2023-04-08T03:08:43;8.90;99.90
46037;DHT22;31769;49.304;8.428;2023-04-08T03:11:43;8.90;99.90
46037;DHT22;31769;49.304;8.428;2023-04-08T03:14:44;9.40;99.90
46037;DHT22;31769;49.304;8.428;2023-04-08T03:17:45;8.90;99.90
46037;DHT22;31769;49.304;8.428;2023-04-08T03:20:45;8.90;99.90
46037;DHT22;31769;49.304;8.428;2023-04-08T03:23:46;8.90;99.90
46037;DHT22;31769;49.304;8.428;2023-04-08T03:26:47;9.20;99.90
46037;DHT22;31769;49.304;8.428;2023-04-08T03:29:47;9.00;99.90
46037;DHT22;31769;49.304;8.428;2023-04-08T03:32:48;9.40;99.90
46037;DHT22;31769;49.304;8.428;2023-04-08T03:35:49;9.00;99.90
46037;DHT22;31769;49.304;8.428;2023-04-08T03:38:49;9.00;99.90
46037;DHT22;31769;49.304;8.428;2023-04-08T03:41:50;9.00;99.90
46037;DHT22;31769;49.304;8.428;2023-04-08T03:44:51;9.10;99.90
46037;DHT22;31769;49.304;8.428;2023-04-08T03:47:52;9.00;99.90
46037;DHT22;31769;49.304;8.428;2023-04-08T03:50:52;9.00;99.90
46037;DHT22;31769;49.304;8.428;2023-04-08T03:53:53;9.30;99.90
46037;DHT22;31769;49.304;8.428;2023-04-08T03:56:54;9.00;99.90
46037;DHT22;31769;49.304;8.428;2023-04-08T03:59:54;8.90;99.90
46037;DHT22;31769;49.304;8.428;2023-04-08T04:02:55;8.90;99.90
46037;DHT22;31769;49.304;8.428;2023-04-08T04:05:59;9.00;99.90
46037;DHT22;31769;49.304;8.428;2023-04-08T04:09:02;8.80;99.90
46037;DHT22;31769;49.304;8.428;2023-04-08T04:12:05;10.60;99.90
46037;DHT22;31769;49.304;8.428;2023-04-08T04:15:06;8.80;99.90
46037;DHT22;31769;49.304;8.428;2023-04-08T04:18:07;8.70;99.90
46037;DHT22;31769;49.304;8.428;2023-04-08T04:21:08;8.70;99.90
46037;DHT22;31769;49.304;8.428;2023-04-08T04:24:09;8.70;99.90
46037;DHT22;31769;49.304;8.428;2023-04-08T04:27:09;8.70;99.90
46037;DHT22;31769;49.304;8.428;2023-04-08T04:30:10;8.70;99.90
46037;DHT22;31769;49.304;8.428;2023-04-08T04:33:14;8.70;99.90
46037;DHT22;31769;49.304;8.428;2023-04-08T04:36:15;8.70;99.90
46037;DHT22;31769;49.304;8.428;2023-04-08T04:39:15;8.70;99.90
46037;DHT22;31769;49.304;8.428;2023-04-08T04:42:16;8.70;99.90
46037;DHT22;31769;49.304;8.428;2023-04-08T04:45:17;8.70;99.90
46037;DHT22;31769;49.304;8.428;2023-04-08T04:48:17;8.80;99.90
46037;DHT22;31769;49.304;8.428;2023-04-08T04:51:18;8.80;99.90
46037;DHT22;31769;49.304;8.428;2023-04-08T04:54:19;8.80;99.90
46037;DHT22;31769;49.304;8.428;2023-04-08T04:57:19;9.00;99.90
46037;DHT22;31769;49.304;8.428;2023-04-08T05:00:20;8.80;99.90
46037;DHT22;31769;49.304;8.428;2023-04-08T05:03:21;8.90;99.90
46037;DHT22;31769;49.304;8.428;2023-04-08T05:06:22;8.90;99.90
46037;DHT22;31769;49.304;8.428;2023-04-08T05:09:23;8.90;99.90
46037;DHT22;31769;49.304;8.428;2023-04-08T05:12:24;9.00;99.90
46037;DHT22;31769;49.304;8.428;2023-04-08T05:15:26;8.90;99.90
46037;DHT22;31769;49.304;8.428;2023-04-08T05:18:27;9.10;99.90
46037;DHT22;31769;49.304;8.428;2023-04-08T05:21:27;9.00;99.90
46037;DHT22;31769;49.304;8.428;2023-04-08T05:24:28;9.70;99.90
46037;DHT22;31769;49.304;8.428;2023-04-08T05:27:29;9.10;99.90
46037;DHT22;31769;49.304;8.428;2023-04-08T05:30:30;9.10;99.90
46037;DHT22;31769;49.304;8.428;2023-04-08T05:33:30;9.10;99.90
46037;DHT22;31769;49.304;8.428;2023-04-08T05:36:31;9.20;99.90
46037;DHT22;31769;49.304;8.428;2023-04-08T05:39:32;9.20;99.90
46037;DHT22;31769;49.304;8.428;2023-04-08T05:42:32;9.20;99.90
46037;DHT22;31769;49.304;8.428;2023-04-08T05:45:33;9.30;99.90
46037;DHT22;31769;49.304;8.428;2023-04-08T05:48:34;9.30;99.90
46037;DHT22;31769;49.304;8.428;2023-04-08T05:51:35;9.40;99.90
46037;DHT22;31769;49.304;8.428;2023-04-08T05:54:35;9.50;99.90
46037;DHT22;31769;49.304;8.428;2023-04-08T05:57:36;9.50;99.90
46037;DHT22;31769;49.304;8.428;2023-04-08T06:00:37;9.60;99.90
46037;DHT22;31769;49.304;8.428;2023-04-08T06:03:38;9.60;99.90
46037;DHT22;31769;49.304;8.428;2023-04-08T06:06:38;9.70;99.90
46037;DHT22;31769;49.304;8.428;2023-04-08T06:09:39;9.70;99.90
46037;DHT22;31769;49.304;8.428;2023-04-08T06:12:40;9.80;99.90
46037;DHT22;31769;49.304;8.428;2023-04-08T06:19:57;10.00;99.90
46037;DHT22;31769;49.304;8.428;2023-04-08T06:22:57;10.00;99.90
46037;DHT22;31769;49.304;8.428;2023-04-08T06:25:58;10.10;99.90
46037;DHT22;31769;49.304;8.428;2023-04-08T06:28:58;10.20;99.90
46037;DHT22;31769;49.304;8.428;2023-04-08T06:31:59;10.30;99.90
46037;DHT22;31769;49.304;8.428;2023-04-08T06:35:00;10.30;99.90
46037;DHT22;31769;49.304;8.428;2023-04-08T06:38:01;10.40;99.90
46037;DHT22;31769;49.304;8.428;2023-04-08T06:41:03;10.40;99.90
46037;DHT22;31769;49.304;8.428;2023-04-08T06:44:03;10.70;99.90
46037;DHT22;31769;49.304;8.428;2023-04-08T06:47:04;11.00;99.90
46037;DHT22;31769;49.304;8.428;2023-04-08T06:50:05;11.10;99.90
46037;DHT22;31769;49.304;8.428;2023-04-08T06:53:06;11.20;99.90
46037;DHT22;31769;49.304;8.428;2023-04-08T06:56:07;11.20;99.90
46037;DHT22;31769;49.304;8.428;2023-04-08T06:59:07;11.20;99.90
46037;DHT22;31769;49.304;8.428;2023-04-08T07:02:08;11.20;99.90
46037;DHT22;31769;49.304;8.428;2023-04-08T07:05:08;11.10;99.90
46037;DHT22;31769;49.304;8.428;2023-04-08T07:08:10;11.10;99.90
46037;DHT22;31769;49.304;8.428;2023-04-08T07:11:11;11.30;99.90
46037;DHT22;31769;49.304;8.428;2023-04-08T07:14:11;11.40;99.90
46037;DHT22;31769;49.304;8.428;2023-04-08T07:17:12;11.30;99.90
46037;DHT22;31769;49.304;8.428;2023-04-08T07:20:13;11.40;99.90
46037;DHT22;31769;49.304;8.428;2023-04-08T07:23:13;11.40;99.90
46037;DHT22;31769;49.304;8.428;2023-04-08T07:26:14;11.20;99.90
46037;DHT22;31769;49.304;8.428;2023-04-08T07:29:15;11.20;99.90
46037;DHT22;31769;49.304;8.428;2023-04-08T07:32:16;11.20;99.90
46037;DHT22;31769;49.304;8.428;2023-04-08T07:35:16;11.20;99.90
46037;DHT22;31769;49.304;8.428;2023-04-08T07:38:23;11.20;99.90
46037;DHT22;31769;49.304;8.428;2023-04-08T07:41:24;11.20;99.90
46037;DHT22;31769;49.304;8.428;2023-04-08T07:44:24;11.20;99.90
46037;DHT22;31769;49.304;8.428;2023-04-08T07:47:25;11.20;99.90
46037;DHT22;31769;49.304;8.428;2023-04-08T07:50:26;11.30;99.90
46037;DHT22;31769;49.304;8.428;2023-04-08T07:53:27;11.10;99.90
46037;DHT22;31769;49.304;8.428;2023-04-08T07:56:27;11.10;99.90
46037;DHT22;31769;49.304;8.428;2023-04-08T07:59:28;11.10;99.90
46037;DHT22;31769;49.304;8.428;2023-04-08T08:02:29;11.20;99.90
46037;DHT22;31769;49.304;8.428;2023-04-08T08:05:29;11.30;99.90
46037;DHT22;31769;49.304;8.428;2023-04-08T08:08:30;11.30;99.90
46037;DHT22;31769;49.304;8.428;2023-04-08T08:11:32;11.30;99.90
46037;DHT22;31769;49.304;8.428;2023-04-08T08:14:33;11.40;99.90
46037;DHT22;31769;49.304;8.428;2023-04-08T08:17:34;11.70;99.90
46037;DHT22;31769;49.304;8.428;2023-04-08T08:20:35;11.70;99.90
46037;DHT22;31769;49.304;8.428;2023-04-08T08:23:36;11.60;99.90
46037;DHT22;31769;49.304;8.428;2023-04-08T08:26:37;11.50;99.90
46037;DHT22;31769;49.304;8.428;2023-04-08T08:29:37;11.50;99.90
46037;DHT22;31769;49.304;8.428;2023-04-08T08:32:38;11.50;99.90
46037;DHT22;31769;49.304;8.428;2023-04-08T08:35:39;11.50;99.90
46037;DHT22;31769;49.304;8.428;2023-04-08T08:38:39;11.60;99.90
46037;DHT22;31769;49.304;8.428;2023-04-08T08:41:40;11.80;99.90
46037;DHT22;31769;49.304;8.428;2023-04-08T08:44:41;12.10;99.90
46037;DHT22;31769;49.304;8.428;2023-04-08T08:47:42;12.60;99.90
46037;DHT22;31769;49.304;8.428;2023-04-08T08:50:42;12.80;99.90
46037;DHT22;31769;49.304;8.428;2023-04-08T08:53:43;12.90;99.90
46037;DHT22;31769;49.304;8.428;2023-04-08T08:56:44;13.00;99.90
46037;DHT22;31769;49.304;8.428;2023-04-08T08:59:46;13.10;99.90
46037;DHT22;31769;49.304;8.428;2023-04-08T09:02:49;13.40;99.90
46037;DHT22;31769;49.304;8.428;2023-04-08T09:05:55;13.60;99.90
46037;DHT22;31769;49.304;8.428;2023-04-08T09:08:56;13.60;99.90
46037;DHT22;31769;49.304;8.428;2023-04-08T09:12:03;13.60;99.90
46037;DHT22;31769;49.304;8.428;2023-04-08T09:15:04;13.60;99.90
46037;DHT22;31769;49.304;8.428;2023-04-08T09:18:20;13.50;99.90
46037;DHT22;31769;49.304;8.428;2023-04-08T09:21:22;13.70;99.90
46037;DHT22;31769;49.304;8.428;2023-04-08T09:24:29;13.70;99.90
46037;DHT22;31769;49.304;8.428;2023-04-08T09:27:34;13.60;99.90
46037;DHT22;31769;49.304;8.428;2023-04-08T09:30:35;13.70;99.90
46037;DHT22;31769;49.304;8.428;2023-04-08T09:33:36;13.80;99.90
46037;DHT22;31769;49.304;8.428;2023-04-08T09:36:37;14.00;99.90
46037;DHT22;31769;49.304;8.428;2023-04-08T09:39:37;13.70;99.90
46037;DHT22;31769;49.304;8.428;2023-04-08T09:42:45;13.70;99.90
46037;DHT22;31769;49.304;8.428;2023-04-08T09:45:48;13.80;99.90
46037;DHT22;31769;49.304;8.428;2023-04-08T09:48:56;13.90;99.90
46037;DHT22;31769;49.304;8.428;2023-04-08T09:52:20;13.90;99.90
46037;DHT22;31769;49.304;8.428;2023-04-08T09:55:21;14.00;99.90
46037;DHT22;31769;49.304;8.428;2023-04-08T10:06:01;14.80;98.60
46037;DHT22;31769;49.304;8.428;2023-04-08T10:09:02;15.20;97.90
46037;DHT22;31769;49.304;8.428;2023-04-08T10:12:03;15.50;97.40
46037;DHT22;31769;49.304;8.428;2023-04-08T10:15:24;15.60;97.70
46037;DHT22;31769;49.304;8.428;2023-04-08T10:21:37;15.70;98.20
46037;DHT22;31769;49.304;8.428;2023-04-08T10:24:38;15.60;96.10
46037;DHT22;31769;49.304;8.428;2023-04-08T10:27:39;15.70;96.50
46037;DHT22;31769;49.304;8.428;2023-04-08T10:30:50;16.00;95.20
46037;DHT22;31769;49.304;8.428;2023-04-08T10:33:52;16.10;96.10
46037;DHT22;31769;49.304;8.428;2023-04-08T10:36:55;16.20;96.60
46037;DHT22;31769;49.304;8.428;2023-04-08T10:39:56;16.40;95.50
46037;DHT22;31769;49.304;8.428;2023-04-08T10:42:57;16.50;95.40
46037;DHT22;31769;49.304;8.428;2023-04-08T10:45:58;16.40;95.10
46037;DHT22;31769;49.304;8.428;2023-04-08T10:48:59;16.20;94.40
46037;DHT22;31769;49.304;8.428;2023-04-08T10:52:05;16.00;93.30
46037;DHT22;31769;49.304;8.428;2023-04-08T10:55:07;15.50;91.60
46037;DHT22;31769;49.304;8.428;2023-04-08T10:58:08;15.20;92.10
46037;DHT22;31769;49.304;8.428;2023-04-08T11:01:09;14.90;92.70
46037;DHT22;31769;49.304;8.428;2023-04-08T11:04:14;14.70;92.90
46037;DHT22;31769;49.304;8.428;2023-04-08T11:07:15;14.60;93.80
46037;DHT22;31769;49.304;8.428;2023-04-08T11:10:19;14.50;93.80
46037;DHT22;31769;49.304;8.428;2023-04-08T11:13:21;14.20;93.70
46037;DHT22;31769;49.304;8.428;2023-04-08T11:16:22;14.10;94.30
46037;DHT22;31769;49.304;8.428;2023-04-08T11:19:23;14.10;95.00
46037;DHT22;31769;49.304;8.428;2023-04-08T11:22:24;14.00;94.20
46037;DHT22;31769;49.304;8.428;2023-04-08T11:25:27;14.00;93.70
46037;DHT22;31769;49.304;8.428;2023-04-08T11:28:29;14.00;94.50
46037;DHT22;31769;49.304;8.428;2023-04-08T11:31:30;14.10;94.00
46037;DHT22;31769;49.304;8.428;2023-04-08T11:34:31;14.10;92.60
46037;DHT22;31769;49.304;8.428;2023-04-08T11:37:39;14.10;92.80
46037;DHT22;31769;49.304;8.428;2023-04-08T11:40:58;14.30;93.20
46037;DHT22;31769;49.304;8.428;2023-04-08T11:43:59;14.40;93.80
46037;DHT22;31769;49.304;8.428;2023-04-08T11:46:59;14.80;93.80
46037;DHT22;31769;49.304;8.428;2023-04-08T11:50:01;15.20;93.30
46037;DHT22;31769;49.304;8.428;2023-04-08T11:53:02;15.70;92.10
46037;DHT22;31769;49.304;8.428;2023-04-08T11:56:19;15.90;90.70
46037;DHT22;31769;49.304;8.428;2023-04-08T11:59:20;16.00;90.10
46037;DHT22;31769;49.304;8.428;2023-04-08T12:02:21;15.90;89.50
46037;DHT22;31769;49.304;8.428;2023-04-08T12:05:22;16.10;88.40
46037;DHT22;31769;49.304;8.428;2023-04-08T12:08:22;16.30;87.60
46037;DHT22;31769;49.304;8.428;2023-04-08T12:11:23;16.50;84.30
46037;DHT22;31769;49.304;8.428;2023-04-08T12:14:24;16.40;82.30
46037;DHT22;31769;49.304;8.428;2023-04-08T12:17:24;16.30;82.60
46037;DHT22;31769;49.304;8.428;2023-04-08T12:20:25;16.40;81.50
46037;DHT22;31769;49.304;8.428;2023-04-08T12:23:26;16.50;81.10
46037;DHT22;31769;49.304;8.428;2023-04-08T12:26:26;16.70;80.60
46037;DHT22;31769;49.304;8.428;2023-04-08T12:29:27;16.60;80.70
46037;DHT22;31769;49.304;8.428;2023-04-08T12:36:51;17.40;79.00
46037;DHT22;31769;49.304;8.428;2023-04-08T12:39:52;17.60;80.80
46037;DHT22;31769;49.304;8.428;2023-04-08T12:42:52;17.80;80.50
46037;DHT22;31769;49.304;8.428;2023-04-08T12:45:53;18.60;79.60
46037;DHT22;31769;49.304;8.428;2023-04-08T12:48:53;19.70;77.20
46037;DHT22;31769;49.304;8.428;2023-04-08T12:51:54;22.40;70.80
46037;DHT22;31769;49.304;8.428;2023-04-08T12:54:54;24.50;63.50
46037;DHT22;31769;49.304;8.428;2023-04-08T12:57:55;24.10;61.10
46037;DHT22;31769;49.304;8.428;2023-04-08T13:00:56;22.60;63.50
46037;DHT22;31769;49.304;8.428;2023-04-08T13:03:56;21.40;66.20
46037;DHT22;31769;49.304;8.428;2023-04-08T13:06:57;20.40;68.40
46037;DHT22;31769;49.304;8.428;2023-04-08T13:09:58;20.50;68.50
46037;DHT22;31769;49.304;8.428;2023-04-08T13:12:59;21.20;67.70
46037;DHT22;31769;49.304;8.428;2023-04-08T13:16:00;21.50;65.80
46037;DHT22;31769;49.304;8.428;2023-04-08T13:19:00;21.90;66.80
46037;DHT22;31769;49.304;8.428;2023-04-08T13:22:01;24.20;60.90
46037;DHT22;31769;49.304;8.428;2023-04-08T13:25:02;26.80;58.40
46037;DHT22;31769;49.304;8.428;2023-04-08T13:28:05;29.80;53.00
46037;DHT22;31769;49.304;8.428;2023-04-08T13:31:06;29.80;49.90
46037;DHT22;31769;49.304;8.428;2023-04-08T13:34:07;29.60;49.10
46037;DHT22;31769;49.304;8.428;2023-04-08T13:37:07;28.20;49.00
46037;DHT22;31769;49.304;8.428;2023-04-08T13:40:08;27.70;50.00
46037;DHT22;31769;49.304;8.428;2023-04-08T13:43:09;27.70;49.80
46037;DHT22;31769;49.304;8.428;2023-04-08T13:46:10;27.70;49.50
46037;DHT22;31769;49.304;8.428;2023-04-08T13:49:10;26.70;49.60
46037;DHT22;31769;49.304;8.428;2023-04-08T13:52:11;25.90;51.30
46037;DHT22;31769;49.304;8.428;2023-04-08T13:55:11;25.50;51.90
46037;DHT22;31769;49.304;8.428;2023-04-08T13:58:12;28.20;49.40
46037;DHT22;31769;49.304;8.428;2023-04-08T14:01:13;31.90;46.30
46037;DHT22;31769;49.304;8.428;2023-04-08T14:04:13;35.20;42.80
46037;DHT22;31769;49.304;8.428;2023-04-08T14:07:14;37.70;39.90
46037;DHT22;31769;49.304;8.428;2023-04-08T14:10:15;38.80;37.50
46037;DHT22;31769;49.304;8.428;2023-04-08T14:13:16;39.40;36.30
46037;DHT22;31769;49.304;8.428;2023-04-08T14:16:17;38.60;35.90
46037;DHT22;31769;49.304;8.428;2023-04-08T14:19:18;37.10;37.10
46037;DHT22;31769;49.304;8.428;2023-04-08T14:22:18;36.30;37.40
46037;DHT22;31769;49.304;8.428;2023-04-08T14:25:19;35.40;37.70
46037;DHT22;31769;49.304;8.428;2023-04-08T14:28:20;34.60;38.50
46037;DHT22;31769;49.304;8.428;2023-04-08T14:31:20;35.50;38.20
46037;DHT22;31769;49.304;8.428;2023-04-08T14:34:21;36.20;37.50
46037;DHT22;31769;49.304;8.428;2023-04-08T14:37:23;33.80;38.80
46037;DHT22;31769;49.304;8.428;2023-04-08T14:40:24;30.00;42.20
46037;DHT22;31769;49.304;8.428;2023-04-08T14:43:24;26.40;46.00
46037;DHT22;31769;49.304;8.428;2023-04-08T14:46:25;23.50;50.60
46037;DHT22;31769;49.304;8.428;2023-04-08T14:49:26;21.70;54.30
46037;DHT22;31769;49.304;8.428;2023-04-08T14:52:27;20.70;56.20
46037;DHT22;31769;49.304;8.428;2023-04-08T14:55:28;19.90;58.20
46037;DHT22;31769;49.304;8.428;2023-04-08T14:58:29;18.80;60.90
46037;DHT22;31769;49.304;8.428;2023-04-08T15:01:30;18.20;63.00
46037;DHT22;31769;49.304;8.428;2023-04-08T15:04:32;18.10;63.50
46037;DHT22;31769;49.304;8.428;2023-04-08T15:07:33;18.00;64.70
46037;DHT22;31769;49.304;8.428;2023-04-08T15:10:34;17.80;65.80
46037;DHT22;31769;49.304;8.428;2023-04-08T15:17:50;17.30;69.70
46037;DHT22;31769;49.304;8.428;2023-04-08T15:20:51;17.30;70.10
46037;DHT22;31769;49.304;8.428;2023-04-08T15:23:52;16.80;72.40
46037;DHT22;31769;49.304;8.428;2023-04-08T15:26:53;16.50;74.60
46037;DHT22;31769;49.304;8.428;2023-04-08T15:29:53;16.20;77.50
46037;DHT22;31769;49.304;8.428;2023-04-08T15:32:54;15.90;80.70
46037;DHT22;31769;49.304;8.428;2023-04-08T15:35:55;15.50;84.90
46037;DHT22;31769;49.304;8.428;2023-04-08T15:38:56;15.30;89.00
46037;DHT22;31769;49.304;8.428;2023-04-08T15:41:57;14.90;90.80
46037;DHT22;31769;49.304;8.428;2023-04-08T15:44:58;14.80;92.10
46037;DHT22;31769;49.304;8.428;2023-04-08T15:47:58;14.70;93.80
46037;DHT22;31769;49.304;8.428;2023-04-08T15:51:05;14.40;95.30
46037;DHT22;31769;49.304;8.428;2023-04-08T15:54:06;14.30;97.20
46037;DHT22;31769;49.304;8.428;2023-04-08T15:57:07;14.10;98.70
46037;DHT22;31769;49.304;8.428;2023-04-08T16:00:11;14.00;99.90
46037;DHT22;31769;49.304;8.428;2023-04-08T16:03:15;13.90;99.90
46037;DHT22;31769;49.304;8.428;2023-04-08T16:06:15;13.90;99.90
46037;DHT22;31769;49.304;8.428;2023-04-08T16:09:16;13.90;99.90
46037;DHT22;31769;49.304;8.428;2023-04-08T16:12:21;13.90;99.90
46037;DHT22;31769;49.304;8.428;2023-04-08T16:15:24;13.90;99.90
46037;DHT22;31769;49.304;8.428;2023-04-08T16:18:25;14.00;99.90
46037;DHT22;31769;49.304;8.428;2023-04-08T16:21:25;14.00;99.90
46037;DHT22;31769;49.304;8.428;2023-04-08T16:24:26;14.10;99.90
46037;DHT22;31769;49.304;8.428;2023-04-08T16:27:27;14.30;99.90
46037;DHT22;31769;49.304;8.428;2023-04-08T16:30:27;14.90;99.90
46037;DHT22;31769;49.304;8.428;2023-04-08T16:33:28;14.20;99.90
46037;DHT22;31769;49.304;8.428;2023-04-08T16:36:30;14.20;99.90
46037;DHT22;31769;49.304;8.428;2023-04-08T16:39:30;14.20;99.90
46037;DHT22;31769;49.304;8.428;2023-04-08T16:42:31;14.20;99.90
46037;DHT22;31769;49.304;8.428;2023-04-08T16:45:32;14.80;99.90
46037;DHT22;31769;49.304;8.428;2023-04-08T16:48:33;14.10;99.90
46037;DHT22;31769;49.304;8.428;2023-04-08T16:51:33;14.20;99.90
46037;DHT22;31769;49.304;8.428;2023-04-08T16:54:34;14.10;99.90
46037;DHT22;31769;49.304;8.428;2023-04-08T16:57:34;14.10;99.90
46037;DHT22;31769;49.304;8.428;2023-04-08T17:00:37;14.20;99.90
46037;DHT22;31769;49.304;8.428;2023-04-08T17:03:38;15.30;99.90
46037;DHT22;31769;49.304;8.428;2023-04-08T17:06:39;14.10;99.90
46037;DHT22;31769;49.304;8.428;2023-04-08T17:09:40;14.50;99.90
46037;DHT22;31769;49.304;8.428;2023-04-08T17:12:41;13.70;99.90
46037;DHT22;31769;49.304;8.428;2023-04-08T17:15:41;13.60;99.90
46037;DHT22;31769;49.304;8.428;2023-04-08T17:18:43;13.60;99.90
46037;DHT22;31769;49.304;8.428;2023-04-08T17:21:44;13.50;99.90
46037;DHT22;31769;49.304;8.428;2023-04-08T17:24:45;13.40;99.90
46037;DHT22;31769;49.304;8.428;2023-04-08T17:27:47;13.40;99.90
46037;DHT22;31769;49.304;8.428;2023-04-08T17:30:48;13.30;99.90
46037;DHT22;31769;49.304;8.428;2023-04-08T17:33:49;13.20;99.90
46037;DHT22;31769;49.304;8.428;2023-04-08T17:36:51;13.10;99.90
46037;DHT22;31769;49.304;8.428;2023-04-08T17:39:51;13.10;99.90
46037;DHT22;31769;49.304;8.428;2023-04-08T17:42:52;13.10;99.90
46037;DHT22;31769;49.304;8.428;2023-04-08T17:45:57;13.00;99.90
46037;DHT22;31769;49.304;8.428;2023-04-08T17:48:58;12.90;99.90
46037;DHT22;31769;49.304;8.428;2023-04-08T17:51:58;12.90;99.90
46037;DHT22;31769;49.304;8.428;2023-04-08T17:54:59;12.80;99.90
46037;DHT22;31769;49.304;8.428;2023-04-08T17:58:00;12.80;99.90
46037;DHT22;31769;49.304;8.428;2023-04-08T18:01:01;12.80;99.90
46037;DHT22;31769;49.304;8.428;2023-04-08T18:04:02;12.70;99.90
46037;DHT22;31769;49.304;8.428;2023-04-08T18:07:04;13.70;99.90
46037;DHT22;31769;49.304;8.428;2023-04-08T18:10:06;12.80;99.90
46037;DHT22;31769;49.304;8.428;2023-04-08T18:13:07;12.70;99.90
46037;DHT22;31769;49.304;8.428;2023-04-08T18:16:18;12.70;99.90
46037;DHT22;31769;49.304;8.428;2023-04-08T18:19:19;12.70;99.90
46037;DHT22;31769;49.304;8.428;2023-04-08T18:22:20;12.70;99.90
46037;DHT22;31769;49.304;8.428;2023-04-08T18:25:22;12.70;99.90
46037;DHT22;31769;49.304;8.428;2023-04-08T18:28:23;12.60;99.90
46037;DHT22;31769;49.304;8.428;2023-04-08T18:31:23;12.70;99.90
46037;DHT22;31769;49.304;8.428;2023-04-08T18:34:24;13.00;99.90
46037;DHT22;31769;49.304;8.428;2023-04-08T18:37:26;12.60;99.90
46037;DHT22;31769;49.304;8.428;2023-04-08T18:40:26;12.60;99.90
46037;DHT22;31769;49.304;8.428;2023-04-08T18:43:27;12.50;99.90
46037;DHT22;31769;49.304;8.428;2023-04-08T18:46:28;12.50;99.90
46037;DHT22;31769;49.304;8.428;2023-04-08T18:49:29;12.50;99.90
46037;DHT22;31769;49.304;8.428;2023-04-08T18:52:31;12.40;99.90
46037;DHT22;31769;49.304;8.428;2023-04-08T18:55:32;13.80;99.90
46037;DHT22;31769;49.304;8.428;2023-04-08T18:58:35;12.40;99.90
46037;DHT22;31769;49.304;8.428;2023-04-08T19:01:37;12.40;99.90
46037;DHT22;31769;49.304;8.428;2023-04-08T19:04:38;12.30;99.90
46037;DHT22;31769;49.304;8.428;2023-04-08T19:07:39;12.30;99.90
46037;DHT22;31769;49.304;8.428;2023-04-08T19:10:39;12.30;99.90
46037;DHT22;31769;49.304;8.428;2023-04-08T19:13:40;12.40;99.90
46037;DHT22;31769;49.304;8.428;2023-04-08T19:16:41;12.30;99.90
46037;DHT22;31769;49.304;8.428;2023-04-08T19:19:41;12.70;99.90
46037;DHT22;31769;49.304;8.428;2023-04-08T19:22:42;11.80;99.90
46037;DHT22;31769;49.304;8.428;2023-04-08T19:25:43;12.20;99.90
46037;DHT22;31769;49.304;8.428;2023-04-08T19:28:43;12.20;99.90
46037;DHT22;31769;49.304;8.428;2023-04-08T19:31:45;12.20;99.90
46037;DHT22;31769;49.304;8.428;2023-04-08T19:34:46;12.20;99.90
46037;DHT22;31769;49.304;8.428;2023-04-08T19:37:46;12.20;99.90
46037;DHT22;31769;49.304;8.428;2023-04-08T19:40:47;12.20;99.90